createdAt,value
2022-08-03T00:02:24.593Z,77.39
2022-08-03T00:07:27.263Z,77.27
2022-08-03T00:12:29.914Z,76.91
2022-08-03T00:17:52.640Z,76.40
2022-08-03T00:22:55.328Z,76.11
2022-08-03T00:27:58.319Z,75.72
2022-08-03T00:33:01.436Z,75.22
2022-08-03T00:38:05.323Z,75.10
2022-08-03T00:43:09.035Z,74.93
2022-08-03T00:48:29.745Z,74.90
2022-08-03T00:53:36.929Z,75.56
2022-08-03T00:58:39.596Z,76.57
2022-08-03T01:03:42.989Z,77.28
2022-08-03T01:09:09.661Z,78.20
2022-08-03T01:14:19.337Z,78.31
2022-08-03T01:19:45.028Z,78.42
2022-08-03T01:25:02.593Z,78.30
2022-08-03T01:30:10.346Z,78.54
2022-08-03T01:35:28.266Z,78.85
2022-08-03T01:40:34.478Z,79.31
2022-08-03T01:45:38.677Z,79.54
2022-08-03T01:50:42.873Z,79.98
2022-08-03T01:55:52.521Z,79.11
2022-08-03T02:01:01.708Z,77.39
2022-08-03T02:07:00.305Z,75.88
2022-08-03T02:11:30.948Z,70.36
2022-08-03T02:16:34.886Z,60.94
2022-08-03T02:21:56.510Z,57.47
2022-08-03T02:27:02.151Z,49.46
2022-08-03T02:32:05.709Z,45.36
2022-08-03T02:37:10.563Z,40.99
2022-08-03T02:42:16.738Z,42.63
2022-08-03T02:47:21.539Z,40.93
2022-08-03T02:52:28.249Z,47.04
2022-08-03T02:57:35.157Z,47.69
2022-08-03T03:02:41.301Z,47.16
2022-08-03T03:07:51.921Z,49.03
2022-08-03T03:12:57.891Z,49.69
2022-08-03T03:18:01.682Z,52.00
2022-08-03T03:23:05.784Z,53.15
2022-08-03T03:28:08.602Z,52.85
2022-08-03T03:33:12.445Z,52.31
2022-08-03T03:38:15.249Z,55.41
2022-08-03T03:43:21.438Z,55.17
2022-08-03T03:48:25.497Z,54.17
2022-08-03T03:53:28.416Z,53.42
2022-08-03T03:58:32.742Z,52.14
2022-08-03T04:03:36.385Z,51.62
2022-08-03T04:08:59.266Z,53.20
2022-08-03T04:14:20.831Z,54.49
2022-08-03T04:19:32.571Z,54.99
2022-08-03T04:24:41.740Z,54.76
2022-08-03T04:29:48.709Z,55.58
2022-08-03T04:34:52.553Z,56.43
2022-08-03T04:40:00.460Z,56.21
2022-08-03T04:45:05.243Z,56.99
2022-08-03T04:50:12.497Z,55.68
2022-08-03T04:55:33.704Z,55.74
2022-08-03T05:00:36.458Z,54.84
2022-08-03T05:05:49.957Z,54.07
2022-08-03T05:10:53.684Z,53.53
2022-08-03T05:15:56.357Z,53.36
2022-08-03T05:20:59.081Z,53.55
2022-08-03T05:26:01.903Z,52.52
2022-08-03T05:31:04.566Z,51.35
2022-08-03T05:36:07.449Z,50.89
2022-08-03T05:41:22.230Z,48.84
2022-08-03T05:46:26.644Z,48.94
2022-08-03T05:51:29.256Z,48.66
2022-08-03T05:56:31.942Z,47.35
2022-08-03T06:01:34.673Z,46.84
2022-08-03T06:06:38.029Z,47.84
2022-08-03T06:11:41.568Z,48.16
2022-08-03T06:16:44.427Z,48.04
2022-08-03T06:21:48.349Z,46.23
2022-08-03T06:26:51.223Z,45.62
2022-08-03T06:31:53.876Z,44.86
2022-08-03T06:37:01.728Z,44.73
2022-08-03T06:42:05.140Z,42.86
2022-08-03T06:47:09.113Z,42.31
2022-08-03T06:52:11.834Z,40.80
2022-08-03T06:57:34.552Z,40.06
2022-08-03T07:02:37.403Z,40.95
2022-08-03T07:07:41.343Z,40.19
2022-08-03T07:12:55.607Z,38.95
2022-08-03T07:17:59.130Z,38.02
2022-08-03T07:23:01.790Z,36.84
2022-08-03T07:28:04.798Z,36.78
2022-08-03T07:33:07.494Z,36.06
2022-08-03T07:38:10.149Z,34.82
2022-08-03T07:43:13.002Z,33.76
2022-08-03T07:48:15.959Z,33.76
2022-08-03T07:53:18.795Z,33.87
2022-08-03T07:58:24.399Z,33.67
2022-08-03T08:03:27.389Z,33.12
2022-08-03T08:08:31.610Z,32.62
2022-08-03T08:13:35.331Z,31.82
2022-08-03T08:18:38.323Z,30.55
2022-08-03T08:23:44.356Z,32.60
2022-08-03T08:28:53.083Z,33.54
2022-08-03T08:34:04.600Z,34.13
2022-08-03T08:39:07.770Z,33.55
2022-08-03T08:44:10.429Z,33.47
2022-08-03T08:49:18.805Z,32.51
2022-08-03T08:54:22.933Z,31.41
2022-08-03T08:59:26.317Z,30.20
2022-08-03T09:04:30.906Z,30.65
2022-08-03T09:10:10.582Z,29.85
2022-08-03T09:15:16.083Z,30.60
2022-08-03T09:20:21.365Z,31.79
2022-08-03T09:25:33.202Z,31.62
2022-08-03T09:30:38.181Z,31.10
2022-08-03T09:35:58.273Z,31.60
2022-08-03T09:41:01.175Z,32.31
2022-08-03T09:46:05.382Z,34.16
2022-08-03T09:51:13.479Z,33.86
2022-08-03T09:56:47.555Z,33.36
2022-08-03T10:01:50.304Z,32.21
2022-08-03T10:07:09.302Z,32.51
2022-08-03T10:12:14.293Z,31.61
2022-08-03T10:17:17.180Z,30.50
2022-08-03T10:22:23.989Z,29.62
2022-08-03T10:27:32.566Z,29.64
2022-08-03T10:32:42.113Z,29.67
2022-08-03T10:37:56.730Z,30.13
2022-08-03T10:43:10.101Z,31.58
2022-08-03T10:48:13.752Z,31.87
2022-08-03T10:53:19.991Z,30.75
2022-08-03T10:58:37.752Z,29.26
2022-08-03T11:03:56.247Z,29.54
2022-08-03T11:09:11.056Z,29.03
2022-08-03T11:14:20.180Z,29.37
2022-08-03T11:19:24.328Z,28.93
2022-08-03T11:24:51.568Z,28.47
2022-08-03T11:30:18.554Z,28.64
2022-08-03T11:35:33.748Z,27.58
2022-08-03T11:40:38.069Z,27.79
2022-08-03T11:45:57.291Z,28.13
2022-08-03T11:51:07.771Z,27.64
2022-08-03T11:56:12.716Z,27.08
2022-08-03T12:01:21.260Z,27.47
2022-08-03T12:06:25.584Z,28.88
2022-08-03T12:11:30.728Z,28.58
2022-08-03T12:16:33.838Z,28.27
2022-08-03T12:21:57.131Z,27.63
2022-08-03T12:27:00.357Z,27.99
2022-08-03T12:32:03.214Z,28.41
2022-08-03T12:37:22.234Z,27.78
2022-08-03T12:42:37.528Z,27.67
2022-08-03T12:48:00.329Z,28.28
2022-08-03T12:53:05.416Z,29.17
2022-08-03T12:58:33.823Z,29.46
2022-08-03T13:03:49.793Z,29.65
2022-08-03T13:09:06.815Z,30.16
2022-08-03T13:14:09.746Z,30.18
2022-08-03T13:19:19.859Z,30.05
2022-08-03T13:24:22.629Z,29.78
2022-08-03T13:29:25.275Z,30.61
2022-08-03T13:34:28.393Z,30.52
2022-08-03T13:39:32.536Z,30.89
2022-08-03T13:44:37.217Z,31.20
2022-08-03T13:49:39.895Z,31.14
2022-08-03T13:54:46.172Z,31.43
2022-08-03T13:59:50.952Z,31.75
2022-08-03T14:04:54.831Z,31.67
2022-08-03T14:09:57.417Z,32.44
2022-08-03T14:15:01.731Z,33.44
2022-08-03T14:20:36.918Z,33.32
2022-08-03T14:25:43.647Z,33.94
2022-08-03T14:30:56.183Z,33.90
2022-08-03T14:35:58.922Z,33.86
2022-08-03T14:41:01.825Z,35.93
2022-08-03T14:46:04.574Z,36.44
2022-08-03T14:51:07.244Z,36.85
2022-08-03T14:56:10.965Z,36.44
2022-08-03T15:02:02.196Z,35.86
2022-08-03T15:06:36.486Z,36.09
2022-08-03T15:11:39.350Z,36.05
2022-08-03T15:16:42.214Z,35.46
2022-08-03T15:21:46.853Z,36.15
2022-08-03T15:26:52.260Z,34.96
2022-08-03T15:31:55.781Z,36.49
2022-08-03T15:36:58.681Z,37.83
2022-08-03T15:42:01.296Z,38.22
2022-08-03T15:47:03.988Z,38.02
2022-08-03T15:52:06.653Z,41.37
2022-08-03T15:57:09.390Z,42.63
2022-08-03T16:02:12.040Z,41.88
2022-08-03T16:07:15.990Z,40.52
2022-08-03T16:12:18.676Z,39.01
2022-08-03T16:17:22.419Z,38.88
2022-08-03T16:22:25.777Z,37.67
2022-08-03T16:27:37.634Z,38.88
2022-08-03T16:32:51.953Z,39.48
2022-08-03T16:37:56.734Z,39.17
2022-08-03T16:42:59.676Z,42.12
2022-08-03T16:48:05.571Z,44.49
2022-08-03T16:53:16.424Z,47.18
2022-08-03T16:58:34.742Z,47.93
2022-08-03T17:04:01.343Z,47.45
2022-08-03T17:09:13.080Z,47.83
2022-08-03T17:14:22.651Z,52.31
2022-08-03T17:19:26.533Z,51.76
2022-08-03T17:24:32.245Z,51.16
2022-08-03T17:29:38.529Z,51.56
2022-08-03T17:34:50.194Z,54.50
2022-08-03T17:39:59.406Z,55.56
2022-08-03T17:45:03.790Z,56.68
2022-08-03T17:50:24.342Z,56.59
2022-08-03T17:55:54.915Z,57.12
2022-08-03T18:02:00.245Z,55.89
2022-08-03T18:06:56.808Z,56.57
2022-08-03T18:12:06.241Z,57.45
2022-08-03T18:17:19.803Z,59.40
2022-08-03T18:22:25.236Z,59.99
2022-08-03T18:27:45.626Z,58.76
2022-08-03T18:33:01.159Z,57.66
2022-08-03T18:38:18.800Z,56.60
2022-08-03T18:43:22.551Z,55.08
2022-08-03T18:49:00.385Z,54.68
2022-08-03T18:54:46.681Z,54.08
2022-08-03T19:00:16.066Z,53.78
2022-08-03T19:05:22.298Z,55.08
2022-08-03T19:10:29.444Z,56.15
2022-08-03T19:15:37.024Z,56.25
2022-08-03T19:20:46.819Z,55.82
2022-08-03T19:25:50.508Z,56.26
2022-08-03T19:30:56.805Z,54.97
2022-08-03T19:36:02.235Z,55.19
2022-08-03T19:41:07.382Z,54.97
2022-08-03T19:46:14.140Z,53.94
2022-08-03T19:51:17.084Z,54.18
2022-08-03T19:56:26.294Z,54.13
2022-08-03T20:01:30.065Z,54.42
2022-08-03T20:06:57.150Z,53.62
2022-08-03T20:12:00.362Z,53.62
2022-08-03T20:17:03.204Z,54.16
2022-08-03T20:22:14.444Z,54.18
2022-08-03T20:27:21.496Z,54.41
2022-08-03T20:32:34.380Z,55.03
2022-08-03T20:37:37.183Z,55.31
2022-08-03T20:42:41.489Z,55.50
2022-08-03T20:47:50.551Z,55.73
2022-08-03T20:52:54.906Z,55.88
2022-08-03T20:57:59.469Z,56.00
2022-08-03T21:03:03.002Z,55.97
2022-08-03T21:08:07.913Z,55.52
2022-08-03T21:13:23.580Z,55.41
2022-08-03T21:18:28.729Z,54.98
2022-08-03T21:23:35.070Z,55.07
2022-08-03T21:28:47.061Z,54.97
2022-08-03T21:33:49.707Z,54.90
2022-08-03T21:38:56.622Z,54.74
2022-08-03T21:44:01.766Z,54.43
2022-08-03T21:50:05.757Z,54.63
2022-08-03T21:54:35.879Z,55.13
2022-08-03T21:59:44.560Z,55.40
2022-08-03T22:04:55.308Z,55.87
2022-08-03T22:09:59.641Z,55.99
2022-08-03T22:15:05.496Z,57.14
2022-08-03T22:20:11.630Z,57.57
2022-08-03T22:25:15.938Z,57.98
2022-08-03T22:30:19.698Z,59.15
2022-08-03T22:35:24.816Z,59.85
2022-08-03T22:40:28.449Z,60.16
2022-08-03T22:46:07.356Z,60.41
2022-08-03T22:50:56.297Z,60.65
2022-08-03T22:55:59.322Z,61.38
2022-08-03T23:01:06.066Z,61.86
2022-08-03T23:06:08.974Z,62.11
2022-08-03T23:11:12.760Z,62.59
2022-08-03T23:16:16.707Z,63.33
2022-08-03T23:22:00.186Z,63.99
2022-08-03T23:26:56.526Z,64.67
2022-08-03T23:32:01.545Z,64.94
2022-08-03T23:37:05.944Z,65.00
2022-08-03T23:42:09.901Z,65.06
2022-08-03T23:47:14.079Z,65.44
2022-08-03T23:52:28.581Z,65.38
2022-08-03T23:57:52.097Z,65.68
